Map

Track Data

SID SEASON NUMBER BASIN SUBBASIN NAME ISO_TIME NATURE LAT LON WMO_WIND WMO_PRES WMO_AGENCY TRACK_TYPE DIST2LAND LANDFALL IFLAG USA_AGENCY USA_ATCF_ID USA_LAT USA_LON USA_RECORD USA_STATUS USA_WIND USA_PRES USA_SSHS USA_R34_NE USA_R34_SE USA_R34_SW USA_R34_NW USA_R50_NE USA_R50_SE USA_R50_SW USA_R50_NW USA_R64_NE USA_R64_SE USA_R64_SW USA_R64_NW USA_POCI USA_ROCI USA_RMW USA_EYE TOKYO_LAT TOKYO_LON TOKYO_GRADE TOKYO_WIND TOKYO_PRES TOKYO_R50_DIR TOKYO_R50_LONG TOKYO_R50_SHORT TOKYO_R30_DIR TOKYO_R30_LONG TOKYO_R30_SHORT TOKYO_LAND CMA_LAT CMA_LON CMA_CAT CMA_WIND CMA_PRES HKO_LAT HKO_LON HKO_CAT HKO_WIND HKO_PRES NEWDELHI_LAT NEWDELHI_LON NEWDELHI_GRADE NEWDELHI_WIND NEWDELHI_PRES NEWDELHI_CI NEWDELHI_DP NEWDELHI_POCI REUNION_LAT REUNION_LON REUNION_TYPE REUNION_WIND REUNION_PRES REUNION_TNUM REUNION_CI REUNION_RMW REUNION_R34_NE REUNION_R34_SE REUNION_R34_SW REUNION_R34_NW REUNION_R50_NE REUNION_R50_SE REUNION_R50_SW REUNION_R50_NW REUNION_R64_NE REUNION_R64_SE REUNION_R64_SW REUNION_R64_NW BOM_LAT BOM_LON BOM_TYPE BOM_WIND BOM_PRES BOM_TNUM BOM_CI BOM_RMW BOM_R34_NE BOM_R34_SE BOM_R34_SW BOM_R34_NW BOM_R50_NE BOM_R50_SE BOM_R50_SW BOM_R50_NW BOM_R64_NE BOM_R64_SE BOM_R64_SW BOM_R64_NW BOM_ROCI BOM_POCI BOM_EYE BOM_POS_METHOD BOM_PRES_METHOD NADI_LAT NADI_LON NADI_CAT NADI_WIND NADI_PRES WELLINGTON_LAT WELLINGTON_LON WELLINGTON_WIND WELLINGTON_PRES DS824_LAT DS824_LON DS824_STAGE DS824_WIND DS824_PRES TD9636_LAT TD9636_LON TD9636_STAGE TD9636_WIND TD9636_PRES TD9635_LAT TD9635_LON TD9635_WIND TD9635_PRES TD9635_ROCI NEUMANN_LAT NEUMANN_LON NEUMANN_CLASS NEUMANN_WIND NEUMANN_PRES MLC_LAT MLC_LON MLC_CLASS MLC_WIND MLC_PRES USA_GUST BOM_GUST BOM_GUST_PER REUNION_GUST REUNION_GUST_PER USA_SEAHGT USA_SEARAD_NE USA_SEARAD_SE USA_SEARAD_SW USA_SEARAD_NW STORM_SPEED STORM_DIR
1991181N26282 1991 34 NA NA ANA 1991-06-29 12:00:00 DS 25.9000 -78.0000 20 1012 hurdat_atl main 89 89 O_____________ hurdat_atl AL011991 25.9000 -78.0000 LO 20 1012 -3 9 270
1991181N26282 1991 34 NA NA ANA 1991-06-29 15:00:00 DS 25.9028 -78.4975 main 97 97 P_____________ AL011991 25.9028 -78.4975 LO 20 1012 -3 9 270
1991181N26282 1991 34 NA NA ANA 1991-06-29 18:00:00 DS 25.9000 -79.0000 20 1012 hurdat_atl main 109 59 O_____________ hurdat_atl AL011991 25.9000 -79.0000 LO 20 1012 -3 9 269
1991181N26282 1991 34 NA NA ANA 1991-06-29 21:00:00 DS 25.8924 -79.5076 main 59 9 P_____________ AL011991 25.8924 -79.5076 LO 20 1012 -3 9 270
1991181N26282 1991 34 NA NA ANA 1991-06-30 00:00:00 DS 25.9000 -80.0000 20 1012 hurdat_atl main 9 0 O_____________ hurdat_atl AL011991 25.9000 -80.0000 LO 20 1012 -3 9 273
1991181N26282 1991 34 NA NA ANA 1991-06-30 03:00:00 DS 25.9348 -80.4575 main 0 0 P_____________ AL011991 25.9348 -80.4575 LO 20 1012 -3 8 277
1991181N26282 1991 34 NA NA ANA 1991-06-30 06:00:00 DS 26.0000 -80.9000 20 1012 hurdat_atl main 0 0 O_____________ hurdat_atl AL011991 26.0000 -80.9000 LO 20 1012 -3 8 279
1991181N26282 1991 34 NA NA ANA 1991-06-30 09:00:00 DS 26.0700 -81.3726 main 0 0 P_____________ AL011991 26.0700 -81.3726 LO 20 1012 -3 8 284
1991181N26282 1991 34 NA GM ANA 1991-06-30 12:00:00 DS 26.2000 -81.8000 20 1012 hurdat_atl main 0 0 O_____________ hurdat_atl AL011991 26.2000 -81.8000 LO 20 1012 -3 8 297
1991181N26282 1991 34 NA GM ANA 1991-06-30 15:00:00 DS 26.4199 -82.1449 main 14 14 P_____________ AL011991 26.4199 -82.1449 LO 20 1012 -3 7 313
1991181N26282 1991 34 NA GM ANA 1991-06-30 18:00:00 DS 26.7000 -82.4000 20 1012 hurdat_atl main 14 14 O_____________ hurdat_atl AL011991 26.7000 -82.4000 LO 20 1012 -3 7 325
1991181N26282 1991 34 NA GM ANA 1991-06-30 21:00:00 DS 26.9849 -82.5950 main 22 9 P_____________ AL011991 26.9849 -82.5950 LO 20 1012 -3 7 336
1991181N26282 1991 34 NA GM ANA 1991-07-01 00:00:00 DS 27.3000 -82.7000 20 1012 hurdat_atl main 9 9 O_____________ hurdat_atl AL011991 27.3000 -82.7000 LO 20 1012 -3 7 349
1991181N26282 1991 34 NA GM ANA 1991-07-01 03:00:00 DS 27.6425 -82.7375 main 11 0 P_____________ AL011991 27.6425 -82.7375 LO 20 1012 -3 7 0
1991181N26282 1991 34 NA GM ANA 1991-07-01 06:00:00 DS 28.0000 -82.7000 20 1012 hurdat_atl main 0 0 O_____________ hurdat_atl AL011991 28.0000 -82.7000 LO 20 1012 -3 7 9
1991181N26282 1991 34 NA NA ANA 1991-07-01 09:00:00 DS 28.3575 -82.6225 main 0 0 P_____________ AL011991 28.3575 -82.6225 LO 20 1012 -3 7 14
1991181N26282 1991 34 NA NA ANA 1991-07-01 12:00:00 DS 28.7000 -82.5000 20 1012 hurdat_atl main 0 0 O_____________ hurdat_atl AL011991 28.7000 -82.5000 LO 20 1012 -3 7 18
1991181N26282 1991 34 NA NA ANA 1991-07-01 15:00:00 DS 29.0074 -82.3798 main 0 0 P_____________ AL011991 29.0074 -82.3798 LO 20 1012 -3 7 24
1991181N26282 1991 34 NA NA ANA 1991-07-01 18:00:00 DS 29.3000 -82.2000 20 1012 hurdat_atl main 0 0 O_____________ hurdat_atl AL011991 29.3000 -82.2000 LO 20 1012 -3 7 34
1991181N26282 1991 34 NA NA ANA 1991-07-01 21:00:00 DS 29.6076 -81.9226 main 0 0 P_____________ AL011991 29.6076 -81.9226 LO 20 1012 -3 8 41
1991181N26282 1991 34 NA NA ANA 1991-07-02 00:00:00 DS 29.9000 -81.6000 20 1012 hurdat_atl main 0 0 O_____________ hurdat_atl AL011991 29.9000 -81.6000 LO 20 1012 -3 8 44
1991181N26282 1991 34 NA NA ANA 1991-07-02 03:00:00 DS 30.1574 -81.3072 main 14 14 P_____________ AL011991 30.1574 -81.3072 LO 20 1012 -3 7 46
1991181N26282 1991 34 NA NA ANA 1991-07-02 06:00:00 DS 30.4000 -81.0000 20 1012 hurdat_atl main 47 47 O_____________ hurdat_atl AL011991 30.4000 -81.0000 LO 20 1012 -3 8 49
1991181N26282 1991 34 NA NA ANA 1991-07-02 09:00:00 DS 30.6575 -80.6500 main 66 66 P_____________ AL011991 30.6575 -80.6500 LO 20 1012 -3 8 50
1991181N26282 1991 34 NA NA ANA 1991-07-02 12:00:00 DS 30.9000 -80.3000 20 1012 hurdat_atl main 104 104 O_____________ hurdat_atl AL011991 30.9000 -80.3000 LO 20 1012 -3 7 50
1991181N26282 1991 34 NA NA ANA 1991-07-02 15:00:00 DS 31.1223 -79.9999 main 123 122 P_____________ AL011991 31.1223 -79.9999 LO 22 1012 -3 7 52
1991181N26282 1991 34 NA NA ANA 1991-07-02 18:00:00 TS 31.3000 -79.7000 25 1012 hurdat_atl main 131 131 O_____________ hurdat_atl AL011991 31.3000 -79.7000 TD 25 1012 -1 5 65
1991181N26282 1991 34 NA NA ANA 1991-07-02 21:00:00 TS 31.3542 -79.4233 main 145 145 P_____________ AL011991 31.3542 -79.4233 TD 25 1011 -1 6 72
1991181N26282 1991 34 NA NA ANA 1991-07-03 00:00:00 TS 31.5000 -79.0000 25 1011 hurdat_atl main 154 152 O_____________ hurdat_atl AL011991 31.5000 -79.0000 TD 25 1011 -1 11 60
1991181N26282 1991 34 NA NA ANA 1991-07-03 03:00:00 TS 31.9099 -78.2970 main 160 157 P_____________ AL011991 31.9099 -78.2970 TD 25 1010 -1 17 54
1991181N26282 1991 34 NA NA ANA 1991-07-03 06:00:00 TS 32.5000 -77.4000 25 1010 hurdat_atl main 165 151 O_____________ hurdat_atl AL011991 32.5000 -77.4000 TD 25 1010 -1 20 51
1991181N26282 1991 34 NA NA ANA 1991-07-03 09:00:00 TS 33.1774 -76.4302 main 167 127 P_____________ AL011991 33.1774 -76.4302 TD 27 1009 -1 22 50
1991181N26282 1991 34 NA NA ANA 1991-07-03 12:00:00 TS 33.9000 -75.4000 30 1008 hurdat_atl main 134 134 O_____________ hurdat_atl AL011991 33.9000 -75.4000 TD 30 1008 -1 22 50
1991181N26282 1991 34 NA NA ANA 1991-07-03 15:00:00 TS 34.5777 -74.4504 main 155 155 P_____________ AL011991 34.5777 -74.4504 TD 30 1007 -1 21 52
1991181N26282 1991 34 NA NA ANA 1991-07-03 18:00:00 TS 35.2000 -73.4000 30 1006 hurdat_atl main 201 201 O_____________ hurdat_atl AL011991 35.2000 -73.4000 TD 30 1006 -1 22 59
1991181N26282 1991 34 NA NA ANA 1991-07-03 21:00:00 TS 35.7296 -72.1159 main 306 306 P_____________ AL011991 35.7296 -72.1159 TD 35 1004 0 24 65
1991181N26282 1991 34 NA NA ANA 1991-07-04 00:00:00 TS 36.2000 -70.7000 40 1003 hurdat_atl main 433 433 O_____________ hurdat_atl AL011991 36.2000 -70.7000 TS 40 1003 0 25 67
1991181N26282 1991 34 NA NA ANA 1991-07-04 03:00:00 TS 36.6857 -69.2797 main 536 536 P_____________ AL011991 36.6857 -69.2797 TS 42 1002 0 25 69
1991181N26282 1991 34 NA NA ANA 1991-07-04 06:00:00 TS 37.1000 -67.8000 45 1002 hurdat_atl main 545 541 O_____________ hurdat_atl AL011991 37.1000 -67.8000 TS 45 1002 0 25 73
1991181N26282 1991 34 NA NA ANA 1991-07-04 09:00:00 TS 37.3920 -66.3004 main 573 573 P_____________ AL011991 37.3920 -66.3004 TS 45 1001 0 25 79
1991181N26282 1991 34 NA NA ANA 1991-07-04 12:00:00 TS 37.6000 -64.7000 45 1001 hurdat_atl main 642 642 O_____________ hurdat_atl AL011991 37.6000 -64.7000 TS 45 1001 0 27 82
1991181N26282 1991 34 NA NA ANA 1991-07-04 15:00:00 TS 37.7789 -62.9370 main 665 665 P_____________ AL011991 37.7789 -62.9370 TS 45 1000 0 29 84
1991181N26282 1991 34 NA NA ANA 1991-07-04 18:00:00 TS 37.9000 -61.1000 45 1000 hurdat_atl main 715 715 O_____________ hurdat_atl AL011991 37.9000 -61.1000 TS 45 1000 0 29 85
1991181N26282 1991 34 NA NA ANA 1991-07-04 21:00:00 TS 38.0082 -59.2794 main 792 792 P_____________ AL011991 38.0082 -59.2794 TS 45 1000 0 28 88
1991181N26282 1991 34 NA NA ANA 1991-07-05 00:00:00 TS 38.0000 -57.5000 45 1001 hurdat_atl main 854 854 O_____________ hurdat_atl AL011991 38.0000 -57.5000 TS 45 1001 0 27 95
1991181N26282 1991 34 NA NA ANA 1991-07-05 03:00:00 TS 37.7910 -55.8408 main 932 932 P_____________ AL011991 37.7910 -55.8408 TS 42 1002 0 27 101
1991181N26282 1991 34 NA NA ANA 1991-07-05 06:00:00 TS 37.5000 -54.2000 40 1003 hurdat_atl main 1013 1012 O_____________ hurdat_atl AL011991 37.5000 -54.2000 TS 40 1003 0 27 102
1991181N26282 1991 34 NA NA ANA 1991-07-05 09:00:00 TS 37.2413 -52.4768 main 1047 1047 P_____________ AL011991 37.2413 -52.4768 TS 37 1004 0 28 100
1991181N26282 1991 34 NA NA ANA 1991-07-05 12:00:00 TS 37.0000 -50.7000 35 1005 hurdat_atl main 1087 O_____________ hurdat_atl AL011991 37.0000 -50.7000 TS 35 1005 0 29 100

About IBTrACS Database

This database is a web-friendly format of International Best Track Archive for Climate Stewardship (IBTrACS), a global best track data archive curated by NOAA dating back to 1842.

Updated: 2021-12-03